Archiv-/Tagesdaten

--Timestamp---	Temp	Chill	HIndex	Humid	Dewpt	 Wind 	HiWind	WindDir	Rain 	Barom	Solar	 ET  	 UV 
--------------	----	-----	------	-----	-----	------	------	-------	-----	-----	-----	-----	----
20110622 00:00	17.9	17.9	17.9	86	15.6	3	10	180	0.0	1016.0	0	0.025	0.0
20110622 00:05	17.8	17.8	17.8	86	15.5	5	10	180	0.0	1016.1	0	0.000	0.0
20110622 00:10	17.8	17.8	17.8	87	15.6	2	6	180	0.0	1016.0	0	0.000	0.0
20110622 00:15	17.7	17.7	17.7	87	15.5	3	8	180	0.0	1015.8	0	0.000	0.0
20110622 00:20	17.7	17.7	17.7	87	15.5	5	10	180	0.0	1015.9	0	0.000	0.0
20110622 00:25	17.7	17.7	17.7	87	15.5	3	10	202	0.0	1015.9	0	0.000	0.0
20110622 00:30	17.7	17.7	17.7	87	15.5	3	8	202	0.0	1015.7	0	0.000	0.0
20110622 00:35	17.7	17.7	17.7	87	15.5	3	6	202	0.0	1015.6	0	0.000	0.0
20110622 00:40	17.6	17.6	17.6	87	15.4	5	10	202	0.0	1015.7	0	0.000	0.0
20110622 00:45	17.6	17.6	17.6	87	15.4	5	10	180	0.0	1015.7	0	0.000	0.0
20110622 00:50	17.4	17.4	17.4	87	15.3	5	8	180	0.0	1015.7	0	0.000	0.0
20110622 00:55	17.3	17.3	17.3	87	15.1	5	8	180	0.0	1015.8	0	0.000	0.0
20110622 01:00	17.3	17.3	17.3	87	15.1	3	6	180	0.0	1015.9	0	0.025	0.0
20110622 01:05	17.2	17.2	17.2	87	15.0	2	6	180	0.0	1015.9	0	0.000	0.0
20110622 01:10	17.2	17.2	17.2	87	15.0	5	8	180	0.0	1015.8	0	0.000	0.0
20110622 01:15	17.2	17.2	17.2	88	15.2	2	5	180	0.0	1015.6	0	0.000	0.0
20110622 01:20	17.2	17.2	17.2	88	15.2	2	6	180	0.0	1015.7	0	0.000	0.0
20110622 01:25	17.1	17.1	17.1	88	15.0	3	6	180	0.0	1015.6	0	0.000	0.0
20110622 01:30	17.1	17.1	17.1	88	15.0	3	10	180	0.0	1015.7	0	0.000	0.0
20110622 01:35	17.0	17.0	17.0	88	15.0	5	10	180	0.0	1015.8	0	0.000	0.0
20110622 01:40	17.0	17.0	17.0	88	15.0	5	10	202	0.0	1015.8	0	0.000	0.0
20110622 01:45	16.9	16.9	16.9	88	14.9	8	14	202	0.0	1015.8	0	0.000	0.0
20110622 01:50	16.9	16.9	16.9	88	14.9	5	10	202	0.0	1015.8	0	0.000	0.0
20110622 01:55	16.8	16.8	16.8	88	14.8	3	8	202	0.0	1015.7	0	0.000	0.0
20110622 02:00	16.8	16.8	16.8	89	15.0	3	8	202	0.0	1015.7	0	0.025	0.0
20110622 02:05	16.8	16.8	16.8	89	15.0	3	8	202	0.0	1015.5	0	0.000	0.0
20110622 02:10	16.8	16.8	16.8	89	15.0	2	6	202	0.0	1015.4	0	0.000	0.0
20110622 02:15	16.8	16.8	16.8	89	15.0	2	6	202	0.0	1015.4	0	0.000	0.0
20110622 02:20	16.8	16.8	16.8	89	15.0	3	8	202	0.0	1015.4	0	0.000	0.0
20110622 02:25	16.8	16.8	16.8	89	15.0	3	8	202	0.0	1015.4	0	0.000	0.0
20110622 02:30	16.8	16.8	16.8	89	15.0	5	8	202	0.0	1015.4	0	0.000	0.0
20110622 02:35	16.7	16.7	16.7	89	14.9	3	10	202	0.0	1015.2	0	0.000	0.0
20110622 02:40	16.7	16.7	16.7	89	14.8	2	5	202	0.0	1015.2	0	0.000	0.0
20110622 02:45	16.6	16.6	16.6	89	14.8	2	8	202	0.0	1015.2	0	0.000	0.0
20110622 02:50	16.6	16.6	16.6	89	14.7	2	6	202	0.0	1015.1	0	0.000	0.0
20110622 02:55	16.5	16.5	16.5	89	14.7	0	5	202	0.0	1015.1	0	0.000	0.0
20110622 03:00	16.5	16.5	16.5	89	14.7	3	6	202	0.0	1015.2	0	0.000	0.0
20110622 03:05	16.4	16.4	16.4	89	14.6	2	6	202	0.0	1015.0	0	0.000	0.0
20110622 03:10	16.4	16.4	16.4	89	14.6	2	6	202	0.0	1014.9	0	0.000	0.0
20110622 03:15	16.3	16.3	16.3	89	14.5	2	6	202	0.0	1014.9	0	0.000	0.0
20110622 03:20	16.3	16.3	16.3	89	14.5	0	3	202	0.0	1014.9	0	0.000	0.0
20110622 03:25	16.3	16.3	16.3	89	14.5	0	5	202	0.0	1014.8	0	0.000	0.0
20110622 03:30	16.2	16.2	16.2	89	14.4	2	5	202	0.0	1014.7	0	0.000	0.0
20110622 03:35	16.2	16.2	16.2	89	14.3	0	5	202	0.0	1014.7	0	0.000	0.0
20110622 03:40	16.1	16.1	16.1	89	14.3	2	6	202	0.0	1014.8	0	0.000	0.0
20110622 03:45	16.1	16.1	16.1	89	14.2	2	5	202	0.0	1014.8	0	0.000	0.0
20110622 03:50	16.1	16.1	16.1	89	14.2	0	2	202	0.0	1014.7	0	0.000	0.0
20110622 03:55	16.1	16.1	16.1	89	14.2	2	5	202	0.0	1014.6	0	0.000	0.0
20110622 04:00	16.1	16.1	16.1	89	14.2	2	6	202	0.0	1014.7	0	0.000	0.0
20110622 04:05	16.1	16.1	16.1	89	14.2	5	6	202	0.0	1014.4	0	0.000	0.0
20110622 04:10	16.1	16.1	16.1	89	14.2	3	10	202	0.0	1014.4	0	0.000	0.0
20110622 04:15	16.0	16.0	16.0	89	14.2	3	8	202	0.0	1014.4	0	0.000	0.0
20110622 04:20	16.0	16.0	16.0	89	14.2	5	6	202	0.0	1014.4	0	0.000	0.0
20110622 04:25	16.0	16.0	16.0	88	14.0	5	8	202	0.0	1014.3	0	0.000	0.0
20110622 04:30	16.1	16.1	16.1	88	14.1	5	10	180	0.0	1014.3	0	0.000	0.0
20110622 04:35	16.1	16.1	16.1	87	13.9	5	8	180	0.0	1014.4	0	0.000	0.0
20110622 04:40	16.1	16.1	16.1	87	13.9	6	10	180	0.0	1014.3	0	0.000	0.0
20110622 04:45	16.1	16.1	16.1	87	13.9	5	8	202	0.0	1014.3	0	0.000	0.0
20110622 04:50	16.0	16.0	16.0	86	13.7	5	10	202	0.0	1014.3	0	0.000	0.0
20110622 04:55	16.0	16.0	16.0	86	13.7	5	10	180	0.0	1014.2	0	0.000	0.0
20110622 05:00	15.9	15.9	15.9	86	13.6	5	8	180	0.0	1014.2	0	0.025	0.0
20110622 05:05	15.9	15.9	15.9	86	13.5	3	8	180	0.0	1014.1	0	0.000	0.0
20110622 05:10	15.8	15.8	15.8	86	13.5	5	8	180	0.2	1014.1	0	0.000	0.0
20110622 05:15	15.8	15.8	15.8	86	13.4	5	10	180	0.0	1014.1	0	0.000	0.0
20110622 05:20	15.8	15.8	15.8	86	13.4	6	10	180	0.0	1014.1	2	0.000	0.0
20110622 05:25	15.8	15.8	15.8	86	13.4	5	8	180	0.0	1014.2	6	0.000	0.0
20110622 05:30	15.8	15.8	15.8	86	13.5	5	8	202	0.0	1014.1	9	0.000	0.0
20110622 05:35	15.8	15.8	15.8	86	13.5	5	8	202	0.0	1014.1	11	0.000	0.0
20110622 05:40	15.9	15.9	15.9	86	13.5	2	6	202	0.0	1014.0	11	0.000	0.0
20110622 05:45	15.9	15.9	15.9	85	13.4	2	6	202	0.0	1014.1	17	0.000	0.0
20110622 05:50	15.9	15.9	15.9	85	13.4	2	5	202	0.0	1014.2	24	0.000	0.0
20110622 05:55	16.0	16.0	16.0	85	13.5	3	10	135	0.0	1014.2	24	0.000	0.0
20110622 06:00	16.1	16.1	16.1	85	13.5	3	10	180	0.0	1014.1	29	0.025	0.0
20110622 06:05	16.1	16.1	16.1	85	13.6	2	5	180	0.0	1014.2	35	0.000	0.0
20110622 06:10	16.2	16.2	16.2	85	13.7	2	6	180	0.0	1014.1	36	0.000	0.0
20110622 06:15	16.2	16.2	16.2	85	13.7	2	5	180	0.0	1014.2	31	0.000	0.0
20110622 06:20	16.3	16.3	16.3	85	13.7	2	6	180	0.0	1014.3	31	0.000	0.0
20110622 06:25	16.3	16.3	16.3	85	13.8	2	5	180	0.0	1014.3	32	0.000	0.0
20110622 06:30	16.3	16.3	16.3	85	13.8	3	8	180	0.0	1014.3	33	0.000	0.0
20110622 06:35	16.4	16.4	16.4	85	13.9	2	5	180	0.0	1014.3	34	0.000	0.0
20110622 06:40	16.4	16.4	16.4	85	13.9	3	6	180	0.0	1014.3	62	0.000	0.0
20110622 06:45	16.6	16.6	16.6	85	14.0	3	10	180	0.0	1014.3	131	0.000	0.0
20110622 06:50	16.7	16.7	16.7	84	14.0	3	8	202	0.0	1014.3	148	0.000	0.0
20110622 06:55	16.9	16.9	16.9	84	14.2	3	8	202	0.0	1014.2	162	0.000	0.1
20110622 07:00	17.2	17.2	17.2	83	14.3	5	10	202	0.0	1014.1	175	0.051	0.5
20110622 07:05	17.3	17.3	17.3	82	14.2	3	10	202	0.0	1014.4	167	0.000	0.5
20110622 07:10	17.5	17.5	17.5	81	14.2	5	10	202	0.0	1014.4	211	0.000	0.6
20110622 07:15	17.8	17.8	17.8	81	14.5	5	10	202	0.0	1014.3	264	0.000	0.6
20110622 07:20	18.1	18.1	18.1	80	14.6	5	10	180	0.0	1014.2	321	0.000	0.7
20110622 07:25	18.4	18.4	18.4	79	14.7	3	10	180	0.0	1014.2	160	0.000	0.7
20110622 07:30	18.6	18.6	18.6	78	14.7	3	8	180	0.0	1014.3	196	0.000	0.7
20110622 07:35	18.8	18.8	18.8	78	14.9	3	8	202	0.0	1014.2	151	0.000	0.7
20110622 07:40	18.9	18.9	18.9	77	14.8	3	11	202	0.0	1014.2	167	0.000	0.8
20110622 07:45	18.9	18.9	18.9	76	14.6	3	8	180	0.0	1014.2	154	0.000	0.7
20110622 07:50	19.1	19.1	19.1	76	14.7	3	8	202	0.0	1014.2	128	0.000	0.7
20110622 07:55	19.1	19.1	19.1	77	14.9	2	5	202	0.0	1014.3	142	0.000	0.8
20110622 08:00	19.1	19.1	19.1	78	15.2	0	2	202	0.0	1014.3	119	0.102	0.6
20110622 08:05	19.1	19.1	19.1	78	15.2	0	5	202	0.0	1014.6	67	0.000	0.8
20110622 08:10	19.1	19.1	19.1	79	15.4	0	2	180	0.0	1014.5	84	0.000	1.0
20110622 08:15	19.1	19.1	19.1	78	15.2	0	5	180	0.0	1014.6	124	0.000	1.1
20110622 08:20	19.2	19.2	19.2	78	15.2	3	6	180	0.0	1014.6	168	0.000	1.4
20110622 08:25	19.4	19.4	19.4	78	15.4	5	10	225	0.0	1014.6	427	0.000	1.7
20110622 08:30	19.7	19.7	19.7	77	15.6	2	6	225	0.0	1014.5	291	0.000	1.7
20110622 08:35	19.9	19.9	19.9	76	15.5	3	8	225	0.0	1014.4	214	0.000	1.8
20110622 08:40	20.2	20.2	20.2	76	15.8	2	6	225	0.0	1014.4	564	0.000	2.4
20110622 08:45	20.6	20.6	20.6	74	15.8	2	6	225	0.0	1014.5	359	0.000	2.1
20110622 08:50	20.9	20.9	20.9	73	15.9	2	5	225	0.0	1014.4	505	0.000	2.6
20110622 08:55	21.3	21.3	21.3	71	15.8	3	6	225	0.0	1014.4	580	0.000	2.6
20110622 09:00	21.4	21.4	21.4	71	16.0	2	6	225	0.0	1014.5	248	0.178	2.5
20110622 09:05	21.7	21.7	21.7	70	15.9	3	8	225	0.0	1014.5	637	0.000	3.1
20110622 09:10	21.9	21.9	21.9	70	16.2	3	8	225	0.0	1014.5	629	0.000	3.3
20110622 09:15	22.2	22.2	22.2	69	16.3	5	10	225	0.0	1014.3	583	0.000	3.4
20110622 09:20	22.4	22.4	22.4	68	16.2	5	10	225	0.0	1014.2	560	0.000	3.5
20110622 09:25	22.6	22.6	22.6	68	16.3	5	10	225	0.0	1014.1	567	0.000	3.7
20110622 09:30	22.8	22.8	22.8	67	16.3	3	8	180	0.0	1014.1	587	0.000	3.9
20110622 09:35	23.1	23.1	23.1	67	16.6	3	8	180	0.0	1014.1	594	0.000	4.0
20110622 09:40	23.3	23.3	23.3	65	16.3	3	8	225	0.0	1014.1	603	0.000	4.2
20110622 09:45	23.4	23.4	23.4	66	16.7	2	5	270	0.0	1014.1	610	0.000	4.4
20110622 09:50	23.8	23.8	23.8	62	16.1	3	8	270	0.0	1014.0	624	0.000	4.6
20110622 09:55	24.1	24.1	25.3	60	15.8	5	8	292	0.0	1013.9	634	0.000	4.7
20110622 10:00	24.3	24.3	25.5	59	15.7	3	10	270	0.0	1013.9	642	0.381	4.9
20110622 10:05	24.4	24.4	25.5	61	16.4	3	8	270	0.0	1013.9	659	0.000	5.0
20110622 10:10	24.4	24.4	25.6	59	15.9	5	11	315	0.0	1013.9	661	0.000	5.2
20110622 10:15	24.4	24.4	25.6	59	15.9	5	10	315	0.0	1013.9	674	0.000	5.4
20110622 10:20	24.6	24.6	25.6	60	16.3	5	10	270	0.0	1013.8	677	0.000	5.6
20110622 10:25	24.7	24.7	25.7	60	16.4	3	10	270	0.0	1013.9	691	0.000	5.8
20110622 10:30	25.0	25.0	26.0	60	16.7	2	10	315	0.0	1013.9	705	0.000	5.9
20110622 10:35	25.3	25.3	26.2	58	16.4	3	10	292	0.0	1013.9	713	0.000	6.1
20110622 10:40	25.4	25.4	26.3	57	16.3	2	6	315	0.0	1013.7	724	0.000	6.3
20110622 10:45	25.6	25.6	26.4	55	15.8	3	10	315	0.0	1013.6	733	0.000	6.5
20110622 10:50	25.4	25.4	26.3	56	16.0	3	10	292	0.0	1013.7	741	0.000	6.7
20110622 10:55	25.5	25.5	26.3	54	15.5	3	10	315	0.0	1013.6	751	0.000	6.8
20110622 11:00	25.6	25.6	26.4	55	15.8	5	10	315	0.0	1013.5	759	0.457	7.0
20110622 11:05	25.7	25.7	26.5	56	16.3	2	6	315	0.0	1013.5	767	0.000	7.2
20110622 11:10	25.8	25.8	26.5	54	15.8	3	10	22	0.0	1013.5	778	0.000	7.4
20110622 11:15	25.7	25.7	26.4	54	15.7	3	6	22	0.0	1013.5	788	0.000	7.5
20110622 11:20	25.6	25.6	26.3	53	15.3	3	8	22	0.0	1013.4	796	0.000	7.7
20110622 11:25	25.7	25.7	26.4	53	15.4	3	10	22	0.0	1013.4	801	0.000	7.8
20110622 11:30	25.6	25.6	26.3	53	15.3	3	8	22	0.0	1013.3	809	0.000	8.0
20110622 11:35	25.7	25.7	26.4	54	15.7	2	8	45	0.0	1013.1	817	0.000	8.2
20110622 11:40	25.9	25.9	26.7	54	15.9	0	3	45	0.0	1013.1	827	0.000	8.4
20110622 11:45	26.2	26.2	26.8	51	15.3	3	8	315	0.0	1013.0	830	0.000	8.4
20110622 11:50	26.3	26.3	26.7	47	14.1	2	3	315	0.0	1012.9	838	0.000	8.5
20110622 11:55	26.5	26.5	27.0	50	15.2	2	5	315	0.0	1012.8	853	0.000	8.8
20110622 12:00	26.8	26.8	27.3	52	16.1	0	2	315	0.0	1012.6	860	0.533	8.9
20110622 12:05	27.0	27.0	27.5	51	16.0	2	8	68	0.0	1012.5	841	0.000	8.9
20110622 12:10	26.9	26.9	27.4	51	15.9	3	8	90	0.0	1012.5	1526	0.000	9.0
20110622 12:15	26.6	26.6	27.1	52	15.9	3	8	90	0.0	1012.5	860	0.000	9.1
20110622 12:20	26.6	26.6	27.1	51	15.6	2	6	90	0.0	1012.5	861	0.000	9.2
20110622 12:25	26.6	26.6	27.0	49	15.0	2	6	90	0.0	1012.5	864	0.000	9.3
20110622 12:30	26.7	26.7	27.1	49	15.1	3	11	90	0.0	1012.2	869	0.000	9.3
20110622 12:35	26.8	26.8	27.1	48	14.8	3	8	112	0.0	1012.1	869	0.000	9.4
20110622 12:40	26.8	26.8	27.2	50	15.5	5	11	45	0.0	1012.1	872	0.000	9.4
20110622 12:45	26.8	26.8	27.1	48	14.8	6	11	45	0.0	1012.0	878	0.000	9.5
20110622 12:50	26.8	26.8	27.2	49	15.2	5	11	45	0.0	1011.9	881	0.000	9.6
20110622 12:55	27.1	27.1	27.3	48	15.1	5	10	68	0.0	1011.7	887	0.000	9.6
20110622 13:00	27.2	27.2	27.3	45	14.2	5	11	68	0.0	1011.5	900	0.584	9.8
20110622 13:05	27.2	27.2	27.5	48	15.2	6	10	68	0.0	1011.6	895	0.000	9.8
20110622 13:10	27.4	27.4	27.7	48	15.4	5	11	90	0.0	1011.5	883	0.000	9.7
20110622 13:15	27.5	27.5	27.8	48	15.5	5	11	90	0.0	1011.2	888	0.000	9.7
20110622 13:20	27.4	27.4	27.8	49	15.8	5	18	90	0.0	1011.1	897	0.000	9.5
20110622 13:25	27.4	27.4	27.7	48	15.4	6	18	90	0.0	1011.1	908	0.000	9.8
20110622 13:30	27.6	27.6	27.9	49	15.9	6	14	90	0.0	1010.8	908	0.000	9.9
20110622 13:35	27.8	27.8	28.2	49	16.1	8	16	90	0.0	1010.7	909	0.000	9.9
20110622 13:40	27.8	27.8	28.2	49	16.1	6	14	90	0.0	1010.5	898	0.000	9.8
20110622 13:45	27.9	27.9	28.3	50	16.5	8	13	90	0.0	1010.4	896	0.000	9.8
20110622 13:50	27.9	27.9	28.2	49	16.2	8	18	90	0.0	1010.2	890	0.000	9.7
20110622 13:55	27.9	27.9	28.3	50	16.5	8	19	90	0.0	1010.2	884	0.000	9.6
20110622 14:00	28.0	28.0	28.3	48	15.9	8	14	90	0.0	1010.1	877	0.635	9.5
20110622 14:05	28.2	28.2	28.6	50	16.7	6	18	68	0.0	1010.2	874	0.000	9.5
20110622 14:10	28.2	28.2	28.5	48	16.2	6	19	90	0.0	1010.1	876	0.000	9.3
20110622 14:15	28.3	28.3	28.4	46	15.5	10	21	90	0.0	1010.1	898	0.000	9.4
20110622 14:20	28.4	28.4	28.7	48	16.3	5	10	135	0.0	1010.0	940	0.000	9.4
20110622 14:25	28.4	28.4	28.3	44	14.9	8	18	135	0.0	1009.9	842	0.000	9.3
20110622 14:30	28.6	28.6	28.7	46	15.8	10	18	68	0.0	1009.8	820	0.000	8.2
20110622 14:35	28.3	28.3	28.5	47	15.9	8	18	68	0.0	1009.7	302	0.000	4.0
20110622 14:40	27.8	27.8	28.0	48	15.7	5	14	68	0.0	1009.8	201	0.000	2.6
20110622 14:45	27.3	27.3	27.6	48	15.3	5	14	90	0.0	1010.0	129	0.000	1.6
20110622 14:50	26.9	26.9	27.2	48	15.0	3	10	90	0.0	1010.0	84	0.000	1.0
20110622 14:55	26.7	26.7	27.1	49	15.1	2	5	90	0.0	1010.0	56	0.000	0.3
20110622 15:00	26.4	26.4	27.0	52	15.7	2	8	68	0.0	1010.1	44	0.381	0.0
20110622 15:05	26.2	26.2	26.8	52	15.5	0	2	68	0.0	1010.4	51	0.000	0.2
20110622 15:10	26.1	26.1	26.7	53	15.7	0	3	68	0.0	1010.6	81	0.000	0.9
20110622 15:15	25.9	25.9	26.7	54	15.9	0	2	68	0.0	1010.8	102	0.000	1.2
20110622 15:20	25.9	25.9	26.6	53	15.6	0	2	68	0.0	1010.9	75	0.000	0.9
20110622 15:25	25.9	25.9	26.8	59	17.3	0	2	68	0.0	1010.8	92	0.000	1.1
20110622 15:30	25.7	25.7	26.8	67	19.1	0	3	68	0.0	1010.7	113	0.000	1.3
20110622 15:35	25.3	25.3	26.4	68	19.0	0	2	68	0.2	1010.4	142	0.000	1.6
20110622 15:40	25.1	25.1	26.1	69	19.0	0	3	68	0.0	1010.3	206	0.000	2.2
20110622 15:45	24.9	24.9	25.9	66	18.1	3	8	68	0.0	1010.2	236	0.000	2.7
20110622 15:50	25.0	25.0	26.0	64	17.7	5	10	45	0.0	1009.9	592	0.000	4.6
20110622 15:55	25.2	25.2	26.2	62	17.4	5	10	22	0.0	1010.0	309	0.000	3.4
20110622 16:00	25.4	25.4	26.4	62	17.6	5	8	45	0.0	1010.0	293	0.152	2.8
20110622 16:05	25.6	25.6	26.6	65	18.5	2	5	45	0.0	1009.9	286	0.000	2.9
20110622 16:10	25.8	25.8	26.9	65	18.7	0	3	45	0.0	1009.9	352	0.000	3.4
20110622 16:15	25.9	25.9	27.0	64	18.6	0	3	45	0.0	1009.7	219	0.000	2.6
20110622 16:20	25.9	25.9	26.9	61	17.8	0	3	315	0.0	1009.8	179	0.000	1.8
20110622 16:25	25.8	25.8	26.8	62	18.0	0	3	315	0.0	1010.0	222	0.000	2.0
20110622 16:30	25.8	25.8	26.7	61	17.7	5	8	292	0.0	1010.3	196	0.000	1.8
20110622 16:35	25.8	25.8	26.9	64	18.5	5	13	292	0.0	1010.4	309	0.000	2.8
20110622 16:40	26.1	26.1	27.1	62	18.2	8	16	270	0.0	1010.5	330	0.000	2.9
20110622 16:45	26.1	26.1	27.2	65	19.0	8	19	270	0.0	1010.6	282	0.000	2.6
20110622 16:50	25.9	25.9	26.9	62	18.1	10	23	315	0.0	1010.5	203	0.000	1.8
20110622 16:55	25.6	25.6	26.5	62	17.7	11	21	315	0.0	1010.6	193	0.000	1.6
20110622 17:00	25.2	25.2	26.1	62	17.4	8	18	315	0.0	1010.4	303	0.203	2.0
20110622 17:05	25.2	25.2	26.2	64	17.9	5	18	292	0.0	1010.5	382	0.000	2.6
20110622 17:10	25.2	25.2	26.2	65	18.2	2	6	315	0.0	1010.3	400	0.000	2.7
20110622 17:15	25.3	25.3	26.3	64	18.0	3	11	292	0.0	1010.6	337	0.000	2.7
20110622 17:20	25.1	25.1	26.1	65	18.0	8	26	315	0.0	1010.6	239	0.000	2.1
20110622 17:25	24.7	24.7	25.7	66	17.9	3	10	315	0.0	1010.6	177	0.000	1.8
20110622 17:30	24.2	24.2	25.3	66	17.5	6	21	315	0.0	1010.5	171	0.000	1.7
20110622 17:35	23.7	23.7	23.7	68	17.5	6	11	68	0.0	1010.3	215	0.000	1.8
20110622 17:40	23.6	23.6	23.6	70	17.8	6	21	292	0.0	1010.7	257	0.000	2.1
20110622 17:45	23.8	23.8	23.8	69	17.8	2	6	248	0.0	1010.6	496	0.000	2.4
20110622 17:50	24.2	24.2	25.2	68	17.9	3	10	315	0.0	1010.7	474	0.000	2.2
20110622 17:55	24.3	24.3	25.3	67	17.7	5	19	315	0.0	1011.0	201	0.000	1.6
20110622 18:00	24.0	24.0	25.1	65	17.0	10	19	315	0.0	1011.0	237	0.229	1.6
20110622 18:05	23.9	23.9	25.0	66	17.2	5	14	315	0.0	1010.6	493	0.000	2.0
20110622 18:10	24.2	24.2	25.3	66	17.5	3	10	315	0.0	1010.7	452	0.000	1.8
20110622 18:15	24.4	24.4	25.5	64	17.1	2	5	315	0.0	1010.6	323	0.000	1.6
20110622 18:20	24.4	24.4	25.5	64	17.1	3	8	315	0.0	1010.6	383	0.000	1.5
20110622 18:25	24.3	24.3	25.4	66	17.6	2	8	315	0.0	1010.6	342	0.000	1.5
20110622 18:30	24.2	24.2	25.2	67	17.6	2	5	45	0.0	1010.6	208	0.000	1.2
20110622 18:35	23.9	23.9	25.0	67	17.4	2	5	338	0.0	1010.5	172	0.000	1.1
20110622 18:40	23.8	23.8	23.8	67	17.3	2	5	315	0.0	1010.5	177	0.000	1.0
20110622 18:45	23.8	23.8	23.8	68	17.5	2	6	315	0.0	1010.6	135	0.000	0.8
20110622 18:50	23.6	23.6	23.6	68	17.3	2	8	315	0.0	1010.7	101	0.000	0.6
20110622 18:55	23.4	23.4	23.4	69	17.4	2	5	315	0.0	1011.0	114	0.000	0.6
20110622 19:00	23.3	23.3	23.3	70	17.5	5	10	315	0.0	1011.1	88	0.178	0.3
20110622 19:05	23.1	23.1	23.1	70	17.3	3	8	292	0.0	1011.1	58	0.000	0.0
20110622 19:10	22.9	22.9	22.9	69	16.9	3	10	292	0.0	1011.3	29	0.000	0.0
20110622 19:15	22.7	22.7	22.7	70	16.9	13	48	315	0.0	1012.5	16	0.000	0.0
20110622 19:20	21.8	21.8	21.8	61	13.9	29	56	315	0.0	1013.2	0	0.000	0.0
20110622 19:25	20.6	20.6	20.6	61	12.8	26	43	315	0.0	1014.1	0	0.000	0.0
20110622 19:30	19.7	19.7	19.7	65	12.9	21	35	315	0.0	1013.8	0	0.000	0.0
20110622 19:35	19.1	19.1	19.1	67	12.8	14	29	315	0.0	1013.5	0	0.000	0.0
20110622 19:40	18.6	18.6	18.6	70	13.0	19	29	315	0.0	1013.7	0	0.000	0.0
20110622 19:45	18.1	18.1	18.1	73	13.2	18	27	315	0.0	1014.0	0	0.000	0.0
20110622 19:50	17.6	17.6	17.6	75	13.1	19	31	315	0.2	1014.1	0	0.000	0.0
20110622 19:55	17.0	17.0	17.0	78	13.1	18	35	315	0.2	1014.2	0	0.000	0.0
20110622 20:00	16.5	16.5	16.5	80	13.0	19	32	315	0.0	1014.3	0	0.076	0.0
20110622 20:05	16.2	16.2	16.2	83	13.3	13	26	292	0.2	1014.4	0	0.000	0.0
20110622 20:10	16.1	16.1	16.1	83	13.2	16	31	292	0.0	1014.8	-100000	0.000	0.0
20110622 20:15	15.9	15.9	15.9	85	13.4	11	24	270	0.8	1015.1	-100000	0.000	0.0
20110622 20:20	15.7	15.7	15.7	86	13.4	10	18	270	0.2	1015.9	-100000	0.000	0.0
20110622 20:25	15.6	15.6	15.6	87	13.4	10	18	248	0.0	1016.2	0	0.000	0.0
20110622 20:30	15.4	15.4	15.4	87	13.3	11	19	248	0.2	1016.4	0	0.000	0.0
20110622 20:35	15.3	15.3	15.3	87	13.2	11	21	248	0.2	1016.7	0	0.000	0.0
20110622 20:40	15.3	15.3	15.3	88	13.4	11	21	225	0.2	1016.7	0	0.000	0.0
20110622 20:45	15.3	15.3	15.3	89	13.5	10	18	225	0.4	1016.5	0	0.000	0.0
20110622 20:50	15.3	15.3	15.3	89	13.5	10	19	248	0.2	1016.3	0	0.000	0.0
20110622 20:55	15.3	15.3	15.3	89	13.5	10	18	225	0.4	1016.3	0	0.000	0.0
20110622 21:00	15.3	15.3	15.3	89	13.5	11	18	248	0.4	1016.3	0	0.025	0.0
20110622 21:05	15.3	15.3	15.3	90	13.6	10	24	248	0.2	1015.8	0	0.000	0.0
20110622 21:10	15.3	15.3	15.3	90	13.7	8	16	225	0.4	1015.4	0	0.000	0.0
20110622 21:15	15.3	15.3	15.3	90	13.7	10	18	202	0.2	1015.4	0	0.000	0.0
20110622 21:20	15.4	15.4	15.4	90	13.8	10	16	225	0.0	1015.9	0	0.000	0.0
20110622 21:25	15.3	15.3	15.3	90	13.7	10	18	225	0.0	1016.1	0	0.000	0.0
20110622 21:30	15.3	15.3	15.3	90	13.7	10	16	225	0.0	1016.1	0	0.000	0.0
20110622 21:35	15.4	15.4	15.4	91	13.9	6	16	225	0.0	1016.1	0	0.000	0.0
20110622 21:40	15.4	15.4	15.4	91	13.9	6	16	225	0.0	1016.0	0	0.000	0.0
20110622 21:45	15.3	15.3	15.3	91	13.9	8	14	225	0.0	1016.1	0	0.000	0.0
20110622 21:50	15.4	15.4	15.4	91	13.9	6	11	225	0.0	1016.3	0	0.000	0.0
20110622 21:55	15.4	15.4	15.4	91	13.9	6	11	225	0.0	1016.4	0	0.000	0.0
20110622 22:00	15.4	15.4	15.4	91	14.0	5	11	225	0.0	1016.3	0	0.025	0.0
20110622 22:05	15.4	15.4	15.4	91	14.0	8	18	225	0.0	1016.2	0	0.000	0.0
20110622 22:10	15.4	15.4	15.4	91	14.0	8	16	248	0.0	1016.1	0	0.000	0.0
20110622 22:15	15.4	15.4	15.4	91	14.0	8	14	225	0.0	1016.3	0	0.000	0.0
20110622 22:20	15.4	15.4	15.4	91	14.0	6	13	248	0.0	1016.4	0	0.000	0.0
20110622 22:25	15.4	15.4	15.4	91	14.0	6	14	225	0.0	1016.4	0	0.000	0.0
20110622 22:30	15.4	15.4	15.4	91	14.0	6	11	225	0.0	1016.4	0	0.000	0.0
20110622 22:35	15.4	15.4	15.4	91	14.0	6	16	225	0.0	1016.5	0	0.000	0.0
20110622 22:40	15.5	15.5	15.5	91	14.0	6	10	248	0.0	1016.6	0	0.000	0.0
20110622 22:45	15.5	15.5	15.5	91	14.0	6	13	248	0.0	1016.7	0	0.000	0.0
20110622 22:50	15.5	15.5	15.5	91	14.0	6	14	248	0.0	1016.7	0	0.000	0.0
20110622 22:55	15.5	15.5	15.5	91	14.0	6	14	248	0.0	1016.7	0	0.000	0.0
20110622 23:00	15.6	15.6	15.6	91	14.1	5	8	248	0.0	1016.8	0	0.000	0.0
20110622 23:05	15.6	15.6	15.6	91	14.1	5	8	248	0.0	1016.7	0	0.000	0.0
20110622 23:10	15.6	15.6	15.6	91	14.1	5	8	248	0.0	1016.7	0	0.000	0.0
20110622 23:15	15.6	15.6	15.6	91	14.1	3	10	248	0.0	1016.7	0	0.000	0.0
20110622 23:20	15.6	15.6	15.6	91	14.1	5	8	248	0.0	1016.6	0	0.000	0.0
20110622 23:25	15.6	15.6	15.6	91	14.1	6	10	270	0.0	1016.7	0	0.000	0.0
20110622 23:30	15.6	15.6	15.6	91	14.1	5	10	270	0.0	1016.8	0	0.000	0.0
20110622 23:35	15.6	15.6	15.6	91	14.1	6	11	270	0.0	1016.9	0	0.000	0.0
20110622 23:40	15.6	15.6	15.6	91	14.1	6	11	270	0.0	1017.0	0	0.000	0.0
20110622 23:45	15.6	15.6	15.6	91	14.1	8	11	270	0.0	1017.1	0	0.000	0.0
20110622 23:50	15.6	15.6	15.6	91	14.1	5	8	270	0.0	1017.0	0	0.000	0.0
20110622 23:55	15.6	15.6	15.6	91	14.1	3	10	270	0.0	1017.0	0	0.000	0.0



Please note the license to use and transfer of this data:
http://creativecommons.org/licenses/by-nc-sa/3.0/deed.en

Bitte beachten sie die Lizenz zur Verwertung und Weitergabe der Daten:
http://creativecommons.org/licenses/by-nc-sa/3.0/deed.de

zurück zur Übersicht der Archivdaten (Monats und Tagesdaten)

Cookies helfen bei der Bereitstellung von Inhalten. Durch die Nutzung dieser Seiten erklärst du dich damit einverstanden, dass Cookies auf deinem Rechner gespeichert werden. Weitere Information